sensor_id;sensor_type;location;lat;lon;timestamp;temperature;humidity
41058;DHT22;66768;48.884;2.258;2023-07-24T00:01:58;20.60;99.90
41058;DHT22;66768;48.884;2.258;2023-07-24T00:04:25;20.70;99.90
41058;DHT22;66768;48.884;2.258;2023-07-24T00:06:52;20.70;99.90
41058;DHT22;66768;48.884;2.258;2023-07-24T00:09:20;20.60;99.90
41058;DHT22;66768;48.884;2.258;2023-07-24T00:11:47;20.70;99.90
41058;DHT22;66768;48.884;2.258;2023-07-24T00:14:15;20.60;99.90
41058;DHT22;66768;48.884;2.258;2023-07-24T00:16:43;20.60;99.90
41058;DHT22;66768;48.884;2.258;2023-07-24T00:19:10;20.60;99.90
41058;DHT22;66768;48.884;2.258;2023-07-24T00:21:37;20.60;99.90
41058;DHT22;66768;48.884;2.258;2023-07-24T00:24:04;20.70;99.90
41058;DHT22;66768;48.884;2.258;2023-07-24T00:26:31;20.60;99.90
41058;DHT22;66768;48.884;2.258;2023-07-24T00:28:59;20.60;99.90
41058;DHT22;66768;48.884;2.258;2023-07-24T00:31:26;20.60;99.90
41058;DHT22;66768;48.884;2.258;2023-07-24T00:33:54;20.60;99.90
41058;DHT22;66768;48.884;2.258;2023-07-24T00:36:21;20.60;99.90
41058;DHT22;66768;48.884;2.258;2023-07-24T00:38:48;20.60;99.90
41058;DHT22;66768;48.884;2.258;2023-07-24T00:41:15;20.60;99.90
41058;DHT22;66768;48.884;2.258;2023-07-24T00:43:42;20.60;99.90
41058;DHT22;66768;48.884;2.258;2023-07-24T00:46:10;20.60;99.90
41058;DHT22;66768;48.884;2.258;2023-07-24T00:48:37;20.60;99.90
41058;DHT22;66768;48.884;2.258;2023-07-24T00:51:06;20.50;99.90
41058;DHT22;66768;48.884;2.258;2023-07-24T00:53:33;20.50;99.90
41058;DHT22;66768;48.884;2.258;2023-07-24T00:56:00;20.50;99.90
41058;DHT22;66768;48.884;2.258;2023-07-24T00:58:28;20.50;99.90
41058;DHT22;66768;48.884;2.258;2023-07-24T01:00:55;20.50;99.90
41058;DHT22;66768;48.884;2.258;2023-07-24T01:03:23;20.50;99.90
41058;DHT22;66768;48.884;2.258;2023-07-24T01:05:53;20.60;99.90
41058;DHT22;66768;48.884;2.258;2023-07-24T01:08:23;20.60;99.90
41058;DHT22;66768;48.884;2.258;2023-07-24T01:10:50;20.50;99.90
41058;DHT22;66768;48.884;2.258;2023-07-24T01:13:22;20.60;99.90
41058;DHT22;66768;48.884;2.258;2023-07-24T01:15:54;20.60;99.90
41058;DHT22;66768;48.884;2.258;2023-07-24T01:18:23;20.60;99.90
41058;DHT22;66768;48.884;2.258;2023-07-24T01:20:53;20.60;99.90
41058;DHT22;66768;48.884;2.258;2023-07-24T01:23:35;20.60;99.90
41058;DHT22;66768;48.884;2.258;2023-07-24T01:26:07;20.60;99.90
41058;DHT22;66768;48.884;2.258;2023-07-24T01:28:34;20.60;99.90
41058;DHT22;66768;48.884;2.258;2023-07-24T01:31:01;20.60;99.90
41058;DHT22;66768;48.884;2.258;2023-07-24T01:33:28;20.60;99.90
41058;DHT22;66768;48.884;2.258;2023-07-24T01:35:58;20.60;99.90
41058;DHT22;66768;48.884;2.258;2023-07-24T01:38:26;20.60;99.90
41058;DHT22;66768;48.884;2.258;2023-07-24T01:40:54;20.60;99.90
41058;DHT22;66768;48.884;2.258;2023-07-24T01:43:22;20.60;99.90
41058;DHT22;66768;48.884;2.258;2023-07-24T01:45:49;20.60;99.90
41058;DHT22;66768;48.884;2.258;2023-07-24T01:48:16;20.60;99.90
41058;DHT22;66768;48.884;2.258;2023-07-24T01:50:43;20.60;99.90
41058;DHT22;66768;48.884;2.258;2023-07-24T01:53:10;20.60;99.90
41058;DHT22;66768;48.884;2.258;2023-07-24T01:55:37;20.50;99.90
41058;DHT22;66768;48.884;2.258;2023-07-24T01:58:04;20.50;99.90
41058;DHT22;66768;48.884;2.258;2023-07-24T02:00:32;20.50;99.90
41058;DHT22;66768;48.884;2.258;2023-07-24T02:02:59;20.50;99.90
41058;DHT22;66768;48.884;2.258;2023-07-24T02:05:26;20.50;99.90
41058;DHT22;66768;48.884;2.258;2023-07-24T02:07:53;20.50;99.90
41058;DHT22;66768;48.884;2.258;2023-07-24T02:10:20;20.40;99.90
41058;DHT22;66768;48.884;2.258;2023-07-24T02:12:47;20.40;99.90
41058;DHT22;66768;48.884;2.258;2023-07-24T02:15:14;20.40;99.90
41058;DHT22;66768;48.884;2.258;2023-07-24T02:17:42;20.40;99.90
41058;DHT22;66768;48.884;2.258;2023-07-24T02:20:09;20.30;99.90
41058;DHT22;66768;48.884;2.258;2023-07-24T02:22:36;20.30;99.90
41058;DHT22;66768;48.884;2.258;2023-07-24T02:25:03;20.30;99.90
41058;DHT22;66768;48.884;2.258;2023-07-24T02:27:31;20.20;99.90
41058;DHT22;66768;48.884;2.258;2023-07-24T02:30:00;20.20;99.90
41058;DHT22;66768;48.884;2.258;2023-07-24T02:32:27;20.20;99.90
41058;DHT22;66768;48.884;2.258;2023-07-24T02:34:55;20.20;99.90
41058;DHT22;66768;48.884;2.258;2023-07-24T02:37:22;20.20;99.90
41058;DHT22;66768;48.884;2.258;2023-07-24T02:39:49;20.20;99.90
41058;DHT22;66768;48.884;2.258;2023-07-24T02:42:16;20.10;99.90
41058;DHT22;66768;48.884;2.258;2023-07-24T02:44:43;20.10;99.90
41058;DHT22;66768;48.884;2.258;2023-07-24T02:47:10;20.10;99.90
41058;DHT22;66768;48.884;2.258;2023-07-24T02:49:36;20.20;99.90
41058;DHT22;66768;48.884;2.258;2023-07-24T02:52:05;20.10;99.90
41058;DHT22;66768;48.884;2.258;2023-07-24T02:54:32;20.10;99.90
41058;DHT22;66768;48.884;2.258;2023-07-24T02:56:59;20.20;99.90
41058;DHT22;66768;48.884;2.258;2023-07-24T02:59:26;20.20;99.90
41058;DHT22;66768;48.884;2.258;2023-07-24T03:01:53;20.20;99.90
41058;DHT22;66768;48.884;2.258;2023-07-24T03:04:20;20.20;99.90
41058;DHT22;66768;48.884;2.258;2023-07-24T03:06:47;20.10;99.90
41058;DHT22;66768;48.884;2.258;2023-07-24T03:09:15;20.10;99.90
41058;DHT22;66768;48.884;2.258;2023-07-24T03:11:42;20.10;99.90
41058;DHT22;66768;48.884;2.258;2023-07-24T03:14:09;20.00;99.90
41058;DHT22;66768;48.884;2.258;2023-07-24T03:16:36;19.90;99.90
41058;DHT22;66768;48.884;2.258;2023-07-24T03:19:03;19.90;99.90
41058;DHT22;66768;48.884;2.258;2023-07-24T03:21:30;19.80;99.90
41058;DHT22;66768;48.884;2.258;2023-07-24T03:23:56;19.70;99.90
41058;DHT22;66768;48.884;2.258;2023-07-24T03:26:25;19.70;99.90
41058;DHT22;66768;48.884;2.258;2023-07-24T03:28:51;19.70;99.90
41058;DHT22;66768;48.884;2.258;2023-07-24T03:31:18;19.60;99.90
41058;DHT22;66768;48.884;2.258;2023-07-24T03:33:45;19.60;99.90
41058;DHT22;66768;48.884;2.258;2023-07-24T03:36:12;19.50;99.90
41058;DHT22;66768;48.884;2.258;2023-07-24T03:38:39;19.50;99.90
41058;DHT22;66768;48.884;2.258;2023-07-24T03:41:06;19.60;99.90
41058;DHT22;66768;48.884;2.258;2023-07-24T03:43:34;19.50;99.90
41058;DHT22;66768;48.884;2.258;2023-07-24T03:46:01;19.40;99.90
41058;DHT22;66768;48.884;2.258;2023-07-24T03:48:27;19.50;99.90
41058;DHT22;66768;48.884;2.258;2023-07-24T03:50:58;19.50;99.90
41058;DHT22;66768;48.884;2.258;2023-07-24T03:53:25;19.50;99.90
41058;DHT22;66768;48.884;2.258;2023-07-24T03:55:52;19.40;99.90
41058;DHT22;66768;48.884;2.258;2023-07-24T03:58:19;19.40;99.90
41058;DHT22;66768;48.884;2.258;2023-07-24T04:00:48;19.40;99.90
41058;DHT22;66768;48.884;2.258;2023-07-24T04:03:15;19.40;99.90
41058;DHT22;66768;48.884;2.258;2023-07-24T04:05:42;19.40;99.90
41058;DHT22;66768;48.884;2.258;2023-07-24T04:08:09;19.40;99.90
41058;DHT22;66768;48.884;2.258;2023-07-24T04:10:36;19.40;99.90
41058;DHT22;66768;48.884;2.258;2023-07-24T04:13:03;19.50;99.90
41058;DHT22;66768;48.884;2.258;2023-07-24T04:15:30;19.50;99.90
41058;DHT22;66768;48.884;2.258;2023-07-24T04:17:58;19.50;99.90
41058;DHT22;66768;48.884;2.258;2023-07-24T04:20:25;19.50;99.90
41058;DHT22;66768;48.884;2.258;2023-07-24T04:22:52;19.50;99.90
41058;DHT22;66768;48.884;2.258;2023-07-24T04:25:19;19.50;99.90
41058;DHT22;66768;48.884;2.258;2023-07-24T04:27:45;19.50;99.90
41058;DHT22;66768;48.884;2.258;2023-07-24T04:30:12;19.50;99.90
41058;DHT22;66768;48.884;2.258;2023-07-24T04:32:39;19.50;99.90
41058;DHT22;66768;48.884;2.258;2023-07-24T04:35:08;19.50;99.90
41058;DHT22;66768;48.884;2.258;2023-07-24T04:37:35;19.50;99.90
41058;DHT22;66768;48.884;2.258;2023-07-24T04:40:02;19.50;99.90
41058;DHT22;66768;48.884;2.258;2023-07-24T04:42:29;19.50;99.90
41058;DHT22;66768;48.884;2.258;2023-07-24T04:44:56;19.60;99.90
41058;DHT22;66768;48.884;2.258;2023-07-24T04:47:23;19.50;99.90
41058;DHT22;66768;48.884;2.258;2023-07-24T04:49:50;19.50;99.90
41058;DHT22;66768;48.884;2.258;2023-07-24T04:52:18;19.60;99.90
41058;DHT22;66768;48.884;2.258;2023-07-24T04:54:45;19.60;99.90
41058;DHT22;66768;48.884;2.258;2023-07-24T04:57:12;19.60;99.90
41058;DHT22;66768;48.884;2.258;2023-07-24T04:59:39;19.60;99.90
41058;DHT22;66768;48.884;2.258;2023-07-24T05:02:06;19.60;99.90
41058;DHT22;66768;48.884;2.258;2023-07-24T05:04:32;19.60;99.90
41058;DHT22;66768;48.884;2.258;2023-07-24T05:06:59;19.60;99.90
41058;DHT22;66768;48.884;2.258;2023-07-24T05:09:27;19.70;99.90
41058;DHT22;66768;48.884;2.258;2023-07-24T05:11:55;19.60;99.90
41058;DHT22;66768;48.884;2.258;2023-07-24T05:14:22;19.70;99.90
41058;DHT22;66768;48.884;2.258;2023-07-24T05:16:48;19.70;99.90
41058;DHT22;66768;48.884;2.258;2023-07-24T05:19:15;19.70;99.90
41058;DHT22;66768;48.884;2.258;2023-07-24T05:21:42;19.70;99.90
41058;DHT22;66768;48.884;2.258;2023-07-24T05:24:09;19.70;99.90
41058;DHT22;66768;48.884;2.258;2023-07-24T05:26:37;19.70;99.90
41058;DHT22;66768;48.884;2.258;2023-07-24T05:29:04;19.80;99.90
41058;DHT22;66768;48.884;2.258;2023-07-24T05:31:31;19.80;99.90
41058;DHT22;66768;48.884;2.258;2023-07-24T05:33:57;19.80;99.90
41058;DHT22;66768;48.884;2.258;2023-07-24T05:36:24;19.90;99.90
41058;DHT22;66768;48.884;2.258;2023-07-24T05:38:51;19.90;99.90
41058;DHT22;66768;48.884;2.258;2023-07-24T05:41:19;20.00;99.90
41058;DHT22;66768;48.884;2.258;2023-07-24T05:43:47;20.00;99.90
41058;DHT22;66768;48.884;2.258;2023-07-24T05:46:14;20.00;99.90
41058;DHT22;66768;48.884;2.258;2023-07-24T05:48:41;20.00;99.90
41058;DHT22;66768;48.884;2.258;2023-07-24T05:51:08;20.00;99.90
41058;DHT22;66768;48.884;2.258;2023-07-24T05:53:35;20.00;99.90
41058;DHT22;66768;48.884;2.258;2023-07-24T05:56:02;20.00;99.90
41058;DHT22;66768;48.884;2.258;2023-07-24T05:58:29;20.00;99.90
41058;DHT22;66768;48.884;2.258;2023-07-24T06:00:57;19.90;99.90
41058;DHT22;66768;48.884;2.258;2023-07-24T06:03:24;20.00;99.90
41058;DHT22;66768;48.884;2.258;2023-07-24T06:05:52;20.00;99.90
41058;DHT22;66768;48.884;2.258;2023-07-24T06:08:19;20.00;99.90
41058;DHT22;66768;48.884;2.258;2023-07-24T06:10:46;20.00;99.90
41058;DHT22;66768;48.884;2.258;2023-07-24T06:13:14;20.00;99.90
41058;DHT22;66768;48.884;2.258;2023-07-24T06:15:41;20.20;99.90
41058;DHT22;66768;48.884;2.258;2023-07-24T06:18:10;20.20;99.90
41058;DHT22;66768;48.884;2.258;2023-07-24T06:20:37;20.20;99.90
41058;DHT22;66768;48.884;2.258;2023-07-24T06:23:03;20.20;99.90
41058;DHT22;66768;48.884;2.258;2023-07-24T06:25:30;20.30;99.90
41058;DHT22;66768;48.884;2.258;2023-07-24T06:27:57;20.20;99.90
41058;DHT22;66768;48.884;2.258;2023-07-24T06:30:24;20.20;99.90
41058;DHT22;66768;48.884;2.258;2023-07-24T06:32:52;20.20;99.90
41058;DHT22;66768;48.884;2.258;2023-07-24T06:35:20;20.30;99.90
41058;DHT22;66768;48.884;2.258;2023-07-24T06:37:47;20.30;99.90
41058;DHT22;66768;48.884;2.258;2023-07-24T06:40:13;20.20;99.90
41058;DHT22;66768;48.884;2.258;2023-07-24T06:42:40;20.20;99.90
41058;DHT22;66768;48.884;2.258;2023-07-24T06:45:08;20.20;99.90
41058;DHT22;66768;48.884;2.258;2023-07-24T06:47:35;20.20;99.90
41058;DHT22;66768;48.884;2.258;2023-07-24T06:50:03;20.30;99.90
41058;DHT22;66768;48.884;2.258;2023-07-24T06:52:31;20.30;99.90
41058;DHT22;66768;48.884;2.258;2023-07-24T06:54:58;20.30;99.90
41058;DHT22;66768;48.884;2.258;2023-07-24T06:57:25;20.40;99.90
41058;DHT22;66768;48.884;2.258;2023-07-24T06:59:52;20.40;99.90
41058;DHT22;66768;48.884;2.258;2023-07-24T07:02:19;20.50;99.90
41058;DHT22;66768;48.884;2.258;2023-07-24T07:04:46;20.60;99.90
41058;DHT22;66768;48.884;2.258;2023-07-24T07:07:13;20.70;99.90
41058;DHT22;66768;48.884;2.258;2023-07-24T07:09:41;20.80;99.90
41058;DHT22;66768;48.884;2.258;2023-07-24T07:12:08;21.00;99.90
41058;DHT22;66768;48.884;2.258;2023-07-24T07:14:35;21.00;99.90
41058;DHT22;66768;48.884;2.258;2023-07-24T07:17:02;21.00;99.90
41058;DHT22;66768;48.884;2.258;2023-07-24T07:19:28;21.10;99.90
41058;DHT22;66768;48.884;2.258;2023-07-24T07:21:56;21.20;99.90
41058;DHT22;66768;48.884;2.258;2023-07-24T07:24:22;21.20;99.90
41058;DHT22;66768;48.884;2.258;2023-07-24T07:26:51;21.30;99.90
41058;DHT22;66768;48.884;2.258;2023-07-24T07:29:17;21.30;99.90
41058;DHT22;66768;48.884;2.258;2023-07-24T07:31:44;21.30;99.90
41058;DHT22;66768;48.884;2.258;2023-07-24T07:34:11;21.30;99.90
41058;DHT22;66768;48.884;2.258;2023-07-24T07:36:38;21.30;99.90
41058;DHT22;66768;48.884;2.258;2023-07-24T07:39:05;21.30;99.90
41058;DHT22;66768;48.884;2.258;2023-07-24T07:41:31;21.30;99.90
41058;DHT22;66768;48.884;2.258;2023-07-24T07:44:00;21.30;99.90
41058;DHT22;66768;48.884;2.258;2023-07-24T07:46:26;21.40;99.90
41058;DHT22;66768;48.884;2.258;2023-07-24T07:48:53;21.40;99.90
41058;DHT22;66768;48.884;2.258;2023-07-24T07:51:20;21.40;99.90
41058;DHT22;66768;48.884;2.258;2023-07-24T07:53:49;21.50;99.90
41058;DHT22;66768;48.884;2.258;2023-07-24T07:56:16;21.50;99.90
41058;DHT22;66768;48.884;2.258;2023-07-24T07:58:43;21.50;99.90
41058;DHT22;66768;48.884;2.258;2023-07-24T08:01:11;21.50;99.90
41058;DHT22;66768;48.884;2.258;2023-07-24T08:03:38;21.40;99.90
41058;DHT22;66768;48.884;2.258;2023-07-24T08:06:05;21.50;99.90
41058;DHT22;66768;48.884;2.258;2023-07-24T08:08:32;21.60;99.90
41058;DHT22;66768;48.884;2.258;2023-07-24T08:11:04;21.80;99.90
41058;DHT22;66768;48.884;2.258;2023-07-24T08:13:30;21.90;99.90
41058;DHT22;66768;48.884;2.258;2023-07-24T08:15:57;21.90;99.90
41058;DHT22;66768;48.884;2.258;2023-07-24T08:18:26;22.20;99.90
41058;DHT22;66768;48.884;2.258;2023-07-24T08:20:53;22.30;99.90
41058;DHT22;66768;48.884;2.258;2023-07-24T08:23:20;22.50;99.90
41058;DHT22;66768;48.884;2.258;2023-07-24T08:25:53;22.60;99.90
41058;DHT22;66768;48.884;2.258;2023-07-24T08:28:20;22.80;99.90
41058;DHT22;66768;48.884;2.258;2023-07-24T08:30:55;22.80;99.30
41058;DHT22;66768;48.884;2.258;2023-07-24T08:33:23;23.10;99.40
41058;DHT22;66768;48.884;2.258;2023-07-24T08:35:59;23.30;98.50
41058;DHT22;66768;48.884;2.258;2023-07-24T08:38:26;23.20;98.40
41058;DHT22;66768;48.884;2.258;2023-07-24T08:41:00;23.10;97.70
41058;DHT22;66768;48.884;2.258;2023-07-24T08:43:29;23.00;96.80
41058;DHT22;66768;48.884;2.258;2023-07-24T08:45:57;22.90;97.30
41058;DHT22;66768;48.884;2.258;2023-07-24T08:48:25;22.70;96.10
41058;DHT22;66768;48.884;2.258;2023-07-24T08:50:53;22.90;96.60
41058;DHT22;66768;48.884;2.258;2023-07-24T08:53:21;23.00;96.40
41058;DHT22;66768;48.884;2.258;2023-07-24T08:55:49;23.20;96.40
41058;DHT22;66768;48.884;2.258;2023-07-24T08:58:19;23.30;96.30
41058;DHT22;66768;48.884;2.258;2023-07-24T09:00:46;23.40;96.40
41058;DHT22;66768;48.884;2.258;2023-07-24T09:03:13;23.30;95.70
41058;DHT22;66768;48.884;2.258;2023-07-24T09:05:40;23.40;95.80
41058;DHT22;66768;48.884;2.258;2023-07-24T09:08:07;23.40;95.00
41058;DHT22;66768;48.884;2.258;2023-07-24T09:10:35;23.30;94.70
41058;DHT22;66768;48.884;2.258;2023-07-24T09:13:02;23.30;94.80
41058;DHT22;66768;48.884;2.258;2023-07-24T09:15:39;23.60;94.90
41058;DHT22;66768;48.884;2.258;2023-07-24T09:18:06;23.70;94.30
41058;DHT22;66768;48.884;2.258;2023-07-24T09:20:38;24.20;93.20
41058;DHT22;66768;48.884;2.258;2023-07-24T09:23:06;24.00;92.60
41058;DHT22;66768;48.884;2.258;2023-07-24T09:25:35;23.90;93.10
41058;DHT22;66768;48.884;2.258;2023-07-24T09:28:09;23.80;92.70
41058;DHT22;66768;48.884;2.258;2023-07-24T09:30:36;23.60;92.30
41058;DHT22;66768;48.884;2.258;2023-07-24T09:33:04;23.50;92.40
41058;DHT22;66768;48.884;2.258;2023-07-24T09:35:31;23.50;93.00
41058;DHT22;66768;48.884;2.258;2023-07-24T09:38:05;23.50;93.50
41058;DHT22;66768;48.884;2.258;2023-07-24T09:40:41;23.30;93.50
41058;DHT22;66768;48.884;2.258;2023-07-24T09:43:19;23.30;93.80
41058;DHT22;66768;48.884;2.258;2023-07-24T09:45:47;23.20;93.80
41058;DHT22;66768;48.884;2.258;2023-07-24T09:48:16;23.30;93.90
41058;DHT22;66768;48.884;2.258;2023-07-24T09:50:45;23.30;93.60
41058;DHT22;66768;48.884;2.258;2023-07-24T09:53:15;23.30;93.90
41058;DHT22;66768;48.884;2.258;2023-07-24T09:55:49;23.40;94.10
41058;DHT22;66768;48.884;2.258;2023-07-24T09:58:18;23.40;94.00
41058;DHT22;66768;48.884;2.258;2023-07-24T10:00:48;23.40;93.90
41058;DHT22;66768;48.884;2.258;2023-07-24T10:03:16;23.30;94.50
41058;DHT22;66768;48.884;2.258;2023-07-24T10:05:44;23.50;94.30
41058;DHT22;66768;48.884;2.258;2023-07-24T10:08:11;23.60;93.70
41058;DHT22;66768;48.884;2.258;2023-07-24T10:10:38;23.60;93.00
41058;DHT22;66768;48.884;2.258;2023-07-24T10:13:08;23.60;93.10
41058;DHT22;66768;48.884;2.258;2023-07-24T10:15:37;23.60;92.70
41058;DHT22;66768;48.884;2.258;2023-07-24T10:18:06;23.50;92.60
41058;DHT22;66768;48.884;2.258;2023-07-24T10:20:34;23.40;92.70
41058;DHT22;66768;48.884;2.258;2023-07-24T10:23:02;23.10;92.80
41058;DHT22;66768;48.884;2.258;2023-07-24T10:25:44;23.10;93.00
41058;DHT22;66768;48.884;2.258;2023-07-24T10:28:13;23.20;93.30
41058;DHT22;66768;48.884;2.258;2023-07-24T10:30:42;23.20;93.60
41058;DHT22;66768;48.884;2.258;2023-07-24T10:33:10;23.30;93.60
41058;DHT22;66768;48.884;2.258;2023-07-24T10:35:43;23.30;93.00
41058;DHT22;66768;48.884;2.258;2023-07-24T10:38:12;23.30;93.00
41058;DHT22;66768;48.884;2.258;2023-07-24T10:40:40;23.20;93.10
41058;DHT22;66768;48.884;2.258;2023-07-24T10:43:09;23.20;93.40
41058;DHT22;66768;48.884;2.258;2023-07-24T10:45:47;23.20;93.50
41058;DHT22;66768;48.884;2.258;2023-07-24T10:48:15;23.00;93.00
41058;DHT22;66768;48.884;2.258;2023-07-24T10:50:43;23.00;93.10
41058;DHT22;66768;48.884;2.258;2023-07-24T10:53:14;23.00;93.30
41058;DHT22;66768;48.884;2.258;2023-07-24T10:55:42;23.00;93.60
41058;DHT22;66768;48.884;2.258;2023-07-24T10:58:10;23.10;93.70
41058;DHT22;66768;48.884;2.258;2023-07-24T11:00:38;23.30;94.00
41058;DHT22;66768;48.884;2.258;2023-07-24T11:03:08;23.40;93.60
41058;DHT22;66768;48.884;2.258;2023-07-24T11:05:35;23.50;93.40
41058;DHT22;66768;48.884;2.258;2023-07-24T11:08:09;23.40;93.10
41058;DHT22;66768;48.884;2.258;2023-07-24T11:10:44;23.50;93.40
41058;DHT22;66768;48.884;2.258;2023-07-24T11:13:11;23.60;93.40
41058;DHT22;66768;48.884;2.258;2023-07-24T11:15:38;23.60;93.00
41058;DHT22;66768;48.884;2.258;2023-07-24T11:18:07;23.60;93.30
41058;DHT22;66768;48.884;2.258;2023-07-24T11:20:37;23.60;93.20
41058;DHT22;66768;48.884;2.258;2023-07-24T11:23:05;23.70;93.30
41058;DHT22;66768;48.884;2.258;2023-07-24T11:25:32;23.80;92.80
41058;DHT22;66768;48.884;2.258;2023-07-24T11:28:00;23.70;92.40
41058;DHT22;66768;48.884;2.258;2023-07-24T11:30:28;23.60;92.70
41058;DHT22;66768;48.884;2.258;2023-07-24T11:32:54;23.50;92.80
41058;DHT22;66768;48.884;2.258;2023-07-24T11:35:26;23.40;93.10
41058;DHT22;66768;48.884;2.258;2023-07-24T11:37:53;23.50;93.30
41058;DHT22;66768;48.884;2.258;2023-07-24T11:40:20;23.50;93.10
41058;DHT22;66768;48.884;2.258;2023-07-24T11:42:48;23.50;93.40
41058;DHT22;66768;48.884;2.258;2023-07-24T11:45:15;23.60;93.00
41058;DHT22;66768;48.884;2.258;2023-07-24T11:47:46;23.60;93.10
41058;DHT22;66768;48.884;2.258;2023-07-24T11:50:14;23.50;92.60
41058;DHT22;66768;48.884;2.258;2023-07-24T11:52:47;23.50;92.80
41058;DHT22;66768;48.884;2.258;2023-07-24T11:55:17;23.60;92.50
41058;DHT22;66768;48.884;2.258;2023-07-24T11:57:55;23.60;92.50
41058;DHT22;66768;48.884;2.258;2023-07-24T12:00:22;23.70;92.60
41058;DHT22;66768;48.884;2.258;2023-07-24T12:02:50;23.70;92.20
41058;DHT22;66768;48.884;2.258;2023-07-24T12:05:17;23.80;92.60
41058;DHT22;66768;48.884;2.258;2023-07-24T12:07:45;23.90;92.10
41058;DHT22;66768;48.884;2.258;2023-07-24T12:10:13;23.80;91.70
41058;DHT22;66768;48.884;2.258;2023-07-24T12:12:43;23.80;91.70
41058;DHT22;66768;48.884;2.258;2023-07-24T12:15:11;23.80;91.70
41058;DHT22;66768;48.884;2.258;2023-07-24T12:17:38;23.60;91.80
41058;DHT22;66768;48.884;2.258;2023-07-24T12:20:06;23.60;92.00
41058;DHT22;66768;48.884;2.258;2023-07-24T12:22:35;23.70;92.30
41058;DHT22;66768;48.884;2.258;2023-07-24T12:25:04;23.70;92.10
41058;DHT22;66768;48.884;2.258;2023-07-24T12:27:32;23.60;92.00
41058;DHT22;66768;48.884;2.258;2023-07-24T12:29:59;23.60;92.20
41058;DHT22;66768;48.884;2.258;2023-07-24T12:32:26;23.70;92.40
41058;DHT22;66768;48.884;2.258;2023-07-24T12:34:53;23.70;92.90
41058;DHT22;66768;48.884;2.258;2023-07-24T12:37:20;23.60;93.00
41058;DHT22;66768;48.884;2.258;2023-07-24T12:39:48;23.60;92.60
41058;DHT22;66768;48.884;2.258;2023-07-24T12:42:16;23.50;92.30
41058;DHT22;66768;48.884;2.258;2023-07-24T12:44:44;23.50;92.10
41058;DHT22;66768;48.884;2.258;2023-07-24T12:47:11;23.50;92.40
41058;DHT22;66768;48.884;2.258;2023-07-24T12:49:38;23.40;92.20
41058;DHT22;66768;48.884;2.258;2023-07-24T12:52:05;23.40;92.70
41058;DHT22;66768;48.884;2.258;2023-07-24T12:54:33;23.30;93.10
41058;DHT22;66768;48.884;2.258;2023-07-24T12:57:00;23.30;94.60
41058;DHT22;66768;48.884;2.258;2023-07-24T12:59:29;23.30;97.00
41058;DHT22;66768;48.884;2.258;2023-07-24T13:01:56;23.00;98.60
41058;DHT22;66768;48.884;2.258;2023-07-24T13:04:23;22.70;99.50
41058;DHT22;66768;48.884;2.258;2023-07-24T13:06:50;22.50;99.90
41058;DHT22;66768;48.884;2.258;2023-07-24T13:09:18;22.40;99.90
41058;DHT22;66768;48.884;2.258;2023-07-24T13:11:45;22.20;99.90
41058;DHT22;66768;48.884;2.258;2023-07-24T13:14:14;22.10;99.90
41058;DHT22;66768;48.884;2.258;2023-07-24T13:16:42;22.10;99.90
41058;DHT22;66768;48.884;2.258;2023-07-24T13:19:09;22.10;99.90
41058;DHT22;66768;48.884;2.258;2023-07-24T13:21:36;22.10;99.90
41058;DHT22;66768;48.884;2.258;2023-07-24T13:24:03;22.10;99.90
41058;DHT22;66768;48.884;2.258;2023-07-24T13:26:30;22.20;99.90
41058;DHT22;66768;48.884;2.258;2023-07-24T13:28:57;22.20;99.90
41058;DHT22;66768;48.884;2.258;2023-07-24T13:31:24;22.10;99.90
41058;DHT22;66768;48.884;2.258;2023-07-24T13:33:55;22.30;99.90
41058;DHT22;66768;48.884;2.258;2023-07-24T13:36:22;22.30;99.90
41058;DHT22;66768;48.884;2.258;2023-07-24T13:38:48;22.40;99.90
41058;DHT22;66768;48.884;2.258;2023-07-24T13:41:15;22.50;99.90
41058;DHT22;66768;48.884;2.258;2023-07-24T13:43:43;22.50;99.90
41058;DHT22;66768;48.884;2.258;2023-07-24T13:46:09;22.60;99.90
41058;DHT22;66768;48.884;2.258;2023-07-24T13:48:36;22.50;99.90
41058;DHT22;66768;48.884;2.258;2023-07-24T13:51:04;22.50;99.80
41058;DHT22;66768;48.884;2.258;2023-07-24T13:53:31;22.60;99.90
41058;DHT22;66768;48.884;2.258;2023-07-24T13:55:58;22.50;99.90
41058;DHT22;66768;48.884;2.258;2023-07-24T13:58:25;22.60;99.90
41058;DHT22;66768;48.884;2.258;2023-07-24T14:00:52;22.70;99.70
41058;DHT22;66768;48.884;2.258;2023-07-24T14:03:19;22.70;99.90
41058;DHT22;66768;48.884;2.258;2023-07-24T14:05:45;22.70;99.70
41058;DHT22;66768;48.884;2.258;2023-07-24T14:08:13;22.70;99.60
41058;DHT22;66768;48.884;2.258;2023-07-24T14:10:40;22.80;99.60
41058;DHT22;66768;48.884;2.258;2023-07-24T14:13:07;22.90;99.50
41058;DHT22;66768;48.884;2.258;2023-07-24T14:15:33;22.90;99.70
41058;DHT22;66768;48.884;2.258;2023-07-24T14:18:00;23.10;99.90
41058;DHT22;66768;48.884;2.258;2023-07-24T14:20:27;23.10;99.90
41058;DHT22;66768;48.884;2.258;2023-07-24T14:22:54;23.20;99.90
41058;DHT22;66768;48.884;2.258;2023-07-24T14:25:22;23.10;99.90
41058;DHT22;66768;48.884;2.258;2023-07-24T14:27:49;23.10;99.90
41058;DHT22;66768;48.884;2.258;2023-07-24T14:30:16;23.10;99.90
41058;DHT22;66768;48.884;2.258;2023-07-24T14:32:43;23.10;99.90
41058;DHT22;66768;48.884;2.258;2023-07-24T14:35:10;23.20;99.90
41058;DHT22;66768;48.884;2.258;2023-07-24T14:37:37;23.20;99.90
41058;DHT22;66768;48.884;2.258;2023-07-24T14:40:04;23.20;99.40
41058;DHT22;66768;48.884;2.258;2023-07-24T14:42:33;23.30;99.40
41058;DHT22;66768;48.884;2.258;2023-07-24T14:45:00;23.40;99.70
41058;DHT22;66768;48.884;2.258;2023-07-24T14:47:28;23.60;99.50
41058;DHT22;66768;48.884;2.258;2023-07-24T14:49:56;23.80;99.10
41058;DHT22;66768;48.884;2.258;2023-07-24T14:52:23;23.90;98.50
41058;DHT22;66768;48.884;2.258;2023-07-24T14:54:50;23.90;97.70
41058;DHT22;66768;48.884;2.258;2023-07-24T14:57:17;23.80;97.40
41058;DHT22;66768;48.884;2.258;2023-07-24T14:59:45;23.80;97.30
41058;DHT22;66768;48.884;2.258;2023-07-24T15:02:12;23.80;97.20
41058;DHT22;66768;48.884;2.258;2023-07-24T15:04:39;23.80;97.60
41058;DHT22;66768;48.884;2.258;2023-07-24T15:07:06;23.90;97.00
41058;DHT22;66768;48.884;2.258;2023-07-24T15:09:33;24.00;96.80
41058;DHT22;66768;48.884;2.258;2023-07-24T15:12:00;23.90;96.10
41058;DHT22;66768;48.884;2.258;2023-07-24T15:14:27;23.90;96.00
41058;DHT22;66768;48.884;2.258;2023-07-24T15:16:55;23.80;96.00
41058;DHT22;66768;48.884;2.258;2023-07-24T15:19:22;23.60;96.40
41058;DHT22;66768;48.884;2.258;2023-07-24T15:21:49;23.50;97.10
41058;DHT22;66768;48.884;2.258;2023-07-24T15:24:17;23.20;98.70
41058;DHT22;66768;48.884;2.258;2023-07-24T15:26:44;23.00;99.70
41058;DHT22;66768;48.884;2.258;2023-07-24T15:29:12;23.00;99.90
41058;DHT22;66768;48.884;2.258;2023-07-24T15:31:40;22.90;99.90
41058;DHT22;66768;48.884;2.258;2023-07-24T15:34:08;22.80;99.90